Time;durP1;ratioP1;P1;durP2;ratioP2;P2;SDS_P1;SDS_P2;PMS_P1;PMS_P2;Temp;Humidity;BMP_temperature;BMP_pressure;BME280_temperature;BME280_humidity;BME280_pressure;Samples;Min_cycle;Max_cycle;Signal;HPM_P1;HPM_P2
2023/03/08 00:02:21;;;;;;;7.25;4.40;;;4.60;1.00;;;;;;7361279;19;20021;-77
2023/03/08 00:04:51;;;;;;;7.90;5.10;;;4.50;1.00;;;;;;7359103;19;20025;-76
2023/03/08 00:07:21;;;;;;;8.13;4.70;;;4.60;1.00;;;;;;7363040;19;20007;-75
2023/03/08 00:09:51;;;;;;;7.88;4.80;;;4.60;1.00;;;;;;7359160;19;20399;-76
2023/03/08 00:12:23;;;;;;;8.93;4.72;;;4.60;1.00;;;;;;7382185;19;20071;-76
2023/03/08 00:14:53;;;;;;;10.15;4.93;;;4.60;1.00;;;;;;7360790;19;20363;-76
2023/03/08 00:17:23;;;;;;;8.02;4.95;;;4.60;1.00;;;;;;7360167;19;20018;-76
2023/03/08 00:19:53;;;;;;;8.38;4.65;;;4.60;1.00;;;;;;7356009;19;20010;-76
2023/03/08 00:22:23;;;;;;;10.75;5.25;;;4.50;1.00;;;;;;7361236;19;20025;-76
2023/03/08 00:24:54;;;;;;;7.93;4.97;;;4.50;1.00;;;;;;7360194;19;20011;-77
2023/03/08 00:27:27;;;;;;;9.65;5.07;;;4.40;1.00;;;;;;7385108;19;20583;-76
2023/03/08 00:29:56;;;;;;;7.40;4.97;;;4.40;1.00;;;;;;7359490;19;20615;-76
2023/03/08 00:32:27;;;;;;;13.15;5.50;;;4.40;1.00;;;;;;7359711;19;20044;-75
2023/03/08 00:34:57;;;;;;;8.07;4.75;;;4.40;1.00;;;;;;7360266;19;20010;-76
2023/03/08 00:37:26;;;;;;;10.13;5.35;;;4.40;1.00;;;;;;7362974;19;20486;-75
2023/03/08 00:39:56;;;;;;;8.15;4.85;;;4.40;1.00;;;;;;7386528;19;20010;-76
2023/03/08 00:42:29;;;;;;;9.55;4.93;;;4.40;1.00;;;;;;7387301;19;20018;-76
2023/03/08 00:44:59;;;;;;;9.80;5.07;;;4.40;1.00;;;;;;7388124;19;20018;-76
2023/03/08 00:47:28;;;;;;;9.35;5.10;;;4.30;1.00;;;;;;7391599;19;20019;-76
2023/03/08 00:49:59;;;;;;;9.02;5.03;;;4.30;1.00;;;;;;7384430;19;20022;-76
2023/03/08 00:52:28;;;;;;;11.85;6.13;;;4.20;1.00;;;;;;7387726;19;20090;-77
2023/03/08 00:54:58;;;;;;;8.50;5.22;;;4.20;1.00;;;;;;7387706;19;20015;-76
2023/03/08 00:57:32;;;;;;;13.13;5.70;;;4.20;1.00;;;;;;7391056;19;20348;-76
2023/03/08 01:00:04;;;;;;;9.00;5.63;;;4.20;1.00;;;;;;7385434;19;20014;-77
2023/03/08 01:02:39;;;;;;;10.05;5.63;;;4.20;1.00;;;;;;7387185;19;20014;-76
2023/03/08 01:05:11;;;;;;;10.43;5.53;;;4.10;1.00;;;;;;7386528;19;20014;-76
2023/03/08 01:07:41;;;;;;;9.93;5.93;;;4.20;1.00;;;;;;7391392;19;20132;-76
2023/03/08 01:10:12;;;;;;;11.23;6.22;;;4.10;1.00;;;;;;7384992;19;20010;-76
2023/03/08 01:12:45;;;;;;;13.35;6.55;;;4.10;1.00;;;;;;7386737;19;20470;-75
2023/03/08 01:15:15;;;;;;;12.50;6.35;;;4.10;1.00;;;;;;7387291;19;20011;-77
2023/03/08 01:17:44;;;;;;;11.55;6.70;;;4.00;1.00;;;;;;7395435;19;20046;-76
2023/03/08 01:20:15;;;;;;;11.07;6.13;;;4.00;1.00;;;;;;7391053;19;20021;-76
2023/03/08 01:22:44;;;;;;;11.13;6.85;;;3.90;1.00;;;;;;7394749;19;20011;-76
2023/03/08 01:25:14;;;;;;;11.20;6.72;;;3.90;1.00;;;;;;7394665;19;20018;-75
2023/03/08 01:27:46;;;;;;;11.82;6.28;;;3.80;1.00;;;;;;7394935;19;20014;-76
2023/03/08 01:30:17;;;;;;;12.45;6.93;;;3.80;1.00;;;;;;7393089;19;20684;-77
2023/03/08 01:32:46;;;;;;;13.10;6.90;;;3.80;1.00;;;;;;7393754;19;20486;-76
2023/03/08 01:35:16;;;;;;;12.65;6.65;;;3.80;1.00;;;;;;7393871;19;20039;-76
2023/03/08 01:37:46;;;;;;;15.48;7.72;;;3.80;1.00;;;;;;7397671;19;20025;-76
2023/03/08 01:40:17;;;;;;;11.27;7.07;;;3.80;1.00;;;;;;7390545;19;20018;-76
2023/03/08 01:42:49;;;;;;;13.02;7.50;;;3.70;1.00;;;;;;7393040;19;20081;-76
2023/03/08 01:46:01;;;;;;;13.20;8.13;;;3.70;1.00;;;;;;7393841;19;20015;-76
2023/03/08 01:48:35;;;;;;;15.05;7.70;;;3.70;1.00;;;;;;7390535;19;20021;-77
2023/03/08 01:51:08;;;;;;;15.70;7.70;;;3.70;1.00;;;;;;7396082;19;20022;-77
2023/03/08 01:53:40;;;;;;;14.52;7.05;;;3.70;1.00;;;;;;7393087;19;20018;-77
2023/03/08 01:56:13;;;;;;;13.20;7.25;;;3.60;1.00;;;;;;7393166;19;20014;-75
2023/03/08 01:58:47;;;;;;;16.67;8.68;;;3.60;1.00;;;;;;7392286;19;20086;-75
2023/03/08 02:01:17;;;;;;;15.00;8.60;;;3.50;1.00;;;;;;7395367;19;20018;-76
2023/03/08 02:03:48;;;;;;;14.25;7.70;;;3.50;1.00;;;;;;7392334;19;20020;-76
2023/03/08 02:06:19;;;;;;;16.50;8.77;;;3.50;1.00;;;;;;7394501;19;20022;-75
2023/03/08 02:08:49;;;;;;;17.05;9.05;;;3.40;1.00;;;;;;7391954;19;20010;-76
2023/03/08 02:11:22;;;;;;;17.58;8.85;;;3.40;1.00;;;;;;7393271;19;20039;-77
2023/03/08 02:13:55;;;;;;;16.95;8.82;;;3.40;1.00;;;;;;7392961;19;20025;-75
2023/03/08 02:16:25;;;;;;;17.42;9.35;;;3.40;1.00;;;;;;7393327;19;20010;-76
2023/03/08 02:18:58;;;;;;;14.07;7.90;;;3.30;1.00;;;;;;7390114;19;20018;-77
2023/03/08 02:21:29;;;;;;;14.77;8.25;;;3.20;1.00;;;;;;7320299;19;20010;-76
2023/03/08 02:24:07;;;;;;;17.52;8.48;;;3.20;1.00;;;;;;7387033;19;20109;-75
2023/03/08 02:26:38;;;;;;;15.63;9.15;;;3.30;1.00;;;;;;7364895;19;20024;-76
2023/03/08 02:29:08;;;;;;;14.90;8.70;;;3.40;1.00;;;;;;7363239;19;20074;-76
2023/03/08 02:31:38;;;;;;;14.90;8.75;;;3.30;1.00;;;;;;7366936;19;20010;-75
2023/03/08 02:34:08;;;;;;;17.50;8.55;;;3.30;1.00;;;;;;7365493;19;20374;-76
2023/03/08 02:36:37;;;;;;;14.90;8.75;;;3.40;1.00;;;;;;7367310;19;20017;-75
2023/03/08 02:39:10;;;;;;;14.93;8.70;;;3.40;1.00;;;;;;7389450;19;20018;-76
2023/03/08 02:41:40;;;;;;;15.88;8.75;;;3.40;1.00;;;;;;7367723;19;20474;-75
2023/03/08 02:44:10;;;;;;;17.02;9.52;;;3.50;1.00;;;;;;7364399;19;20010;-76
2023/03/08 02:46:39;;;;;;;14.50;7.72;;;3.60;1.00;;;;;;7381940;19;20438;-76
2023/03/08 02:49:09;;;;;;;13.57;7.68;;;3.60;1.00;;;;;;7395931;19;20033;-76
2023/03/08 02:51:39;;;;;;;17.13;9.23;;;3.70;1.00;;;;;;7402033;19;20029;-77
2023/03/08 02:54:11;;;;;;;16.52;9.18;;;3.70;1.00;;;;;;7398290;19;20018;-76
2023/03/08 02:56:42;;;;;;;14.90;8.90;;;3.70;1.00;;;;;;7366859;19;20014;-76
2023/03/08 02:59:12;;;;;;;15.32;7.75;;;3.70;1.00;;;;;;7363431;19;20017;-76
2023/03/08 03:01:42;;;;;;;14.07;8.57;;;3.70;1.00;;;;;;7365595;19;20034;-76
2023/03/08 03:04:12;;;;;;;17.40;9.25;;;3.70;1.00;;;;;;7362368;19;20355;-75
2023/03/08 03:06:42;;;;;;;15.18;8.48;;;3.80;1.00;;;;;;7364122;19;20019;-75
2023/03/08 03:09:14;;;;;;;16.23;8.30;;;3.70;1.00;;;;;;7382177;19;20014;-75
2023/03/08 03:11:44;;;;;;;13.55;8.35;;;3.80;1.00;;;;;;7365805;19;20010;-76
2023/03/08 03:14:14;;;;;;;15.95;8.63;;;3.80;1.00;;;;;;7362824;19;20010;-75
2023/03/08 03:16:43;;;;;;;15.32;7.90;;;3.80;1.00;;;;;;7363708;19;20478;-76
2023/03/08 03:19:13;;;;;;;15.60;7.57;;;3.90;1.00;;;;;;7359701;19;20106;-76
2023/03/08 03:21:43;;;;;;;15.63;9.27;;;3.80;1.00;;;;;;7389928;19;20112;-76
2023/03/08 03:24:16;;;;;;;15.02;8.05;;;3.80;1.00;;;;;;7389652;19;20022;-76
2023/03/08 03:26:46;;;;;;;14.13;8.00;;;3.80;1.00;;;;;;7390600;19;20039;-77
2023/03/08 03:29:15;;;;;;;13.75;7.90;;;3.80;1.00;;;;;;7389531;19;20387;-76
2023/03/08 03:31:45;;;;;;;14.70;7.78;;;3.90;1.00;;;;;;7392934;19;20029;-76
2023/03/08 03:34:15;;;;;;;13.07;8.00;;;3.80;1.00;;;;;;7390379;19;20018;-76
2023/03/08 03:36:45;;;;;;;15.43;7.65;;;3.80;1.00;;;;;;7389986;19;20078;-76
2023/03/08 03:39:17;;;;;;;22.02;8.48;;;3.70;1.00;;;;;;7384764;19;20030;-75
2023/03/08 03:41:47;;;;;;;14.77;7.68;;;3.80;1.00;;;;;;7400156;19;20019;-76
2023/03/08 03:44:17;;;;;;;16.17;8.43;;;3.70;1.00;;;;;;7389541;19;20014;-76
2023/03/08 03:46:46;;;;;;;13.73;7.93;;;3.70;1.00;;;;;;7389316;19;20018;-76
2023/03/08 03:49:16;;;;;;;14.63;7.88;;;3.70;1.00;;;;;;7387331;19;20098;-76
2023/03/08 03:51:46;;;;;;;14.50;8.23;;;3.60;1.00;;;;;;7391960;19;20018;-76
2023/03/08 03:54:18;;;;;;;16.52;8.57;;;3.50;1.00;;;;;;7388268;19;20603;-76
2023/03/08 03:56:48;;;;;;;18.42;7.97;;;3.40;1.00;;;;;;7389064;19;20018;-76
2023/03/08 03:59:18;;;;;;;16.98;8.23;;;3.40;1.00;;;;;;7387021;19;20018;-76
2023/03/08 04:01:48;;;;;;;15.10;8.27;;;3.40;1.00;;;;;;7392236;19;20025;-75
2023/03/08 04:04:18;;;;;;;14.93;7.57;;;3.30;1.00;;;;;;7389216;19;20018;-75
2023/03/08 04:06:48;;;;;;;15.05;8.45;;;3.30;1.00;;;;;;7390428;19;20023;-75
2023/03/08 04:09:21;;;;;;;13.60;7.72;;;3.20;1.00;;;;;;7384520;19;20709;-75
2023/03/08 04:11:50;;;;;;;15.23;7.47;;;3.30;1.00;;;;;;7392755;19;20034;-75
2023/03/08 04:14:20;;;;;;;14.95;7.45;;;3.30;1.00;;;;;;7388973;19;20014;-76
2023/03/08 04:16:50;;;;;;;14.20;7.88;;;3.20;1.00;;;;;;7388043;19;20082;-76
2023/03/08 04:19:20;;;;;;;13.85;7.25;;;3.30;1.00;;;;;;7386284;19;20014;-75
2023/03/08 04:21:50;;;;;;;15.25;7.43;;;3.30;1.00;;;;;;7392575;19;20462;-76
2023/03/08 04:24:22;;;;;;;17.92;8.52;;;3.30;1.00;;;;;;7387746;19;20022;-76
2023/03/08 04:26:52;;;;;;;14.40;7.97;;;3.40;1.00;;;;;;7356119;19;20031;-75
2023/03/08 04:29:22;;;;;;;14.32;7.18;;;3.40;1.00;;;;;;7379980;19;20015;-76
2023/03/08 04:31:54;;;;;;;13.25;7.65;;;3.40;1.00;;;;;;7386778;19;20366;-75
2023/03/08 04:34:24;;;;;;;13.80;6.95;;;3.50;1.00;;;;;;7360301;19;20077;-75
2023/03/08 04:36:54;;;;;;;14.57;7.90;;;3.60;1.00;;;;;;7360462;19;20529;-75
2023/03/08 04:39:26;;;;;;;15.52;7.68;;;3.60;1.00;;;;;;7356888;19;20015;-75
2023/03/08 04:41:56;;;;;;;11.98;6.80;;;3.70;1.00;;;;;;7361845;19;20018;-75
2023/03/08 04:44:26;;;;;;;14.38;7.80;;;3.70;1.00;;;;;;7359885;19;20533;-75
2023/03/08 04:46:55;;;;;;;15.02;7.22;;;3.70;1.00;;;;;;7359778;19;20010;-74
2023/03/08 04:49:26;;;;;;;14.45;7.63;;;3.70;1.00;;;;;;7376499;19;20111;-75
2023/03/08 04:51:55;;;;;;;10.82;6.57;;;3.80;1.00;;;;;;7359312;19;20026;-76
2023/03/08 04:54:28;;;;;;;13.23;7.30;;;3.90;1.00;;;;;;7359059;19;20014;-76
2023/03/08 04:56:58;;;;;;;11.50;7.15;;;3.90;1.00;;;;;;7360105;19;20014;-76
2023/03/08 04:59:27;;;;;;;12.80;6.72;;;3.90;1.00;;;;;;7357403;19;20018;-76
2023/03/08 05:01:57;;;;;;;14.88;8.10;;;3.90;1.00;;;;;;7362919;19;20014;-74
2023/03/08 05:04:27;;;;;;;14.95;7.40;;;3.90;1.00;;;;;;7380570;19;20643;-75
2023/03/08 05:06:57;;;;;;;14.90;7.55;;;3.90;1.00;;;;;;7361814;19;20013;-75
2023/03/08 05:09:29;;;;;;;14.85;7.20;;;3.90;1.00;;;;;;7354388;19;20010;-75
2023/03/08 05:11:59;;;;;;;21.67;7.57;;;3.90;1.00;;;;;;7361807;19;20018;-75
2023/03/08 05:14:29;;;;;;;14.93;7.05;;;3.90;1.00;;;;;;7359816;19;20014;-76
2023/03/08 05:16:59;;;;;;;15.18;7.32;;;3.90;1.00;;;;;;7358616;19;20326;-74
2023/03/08 05:19:31;;;;;;;15.93;7.40;;;3.90;1.00;;;;;;7376461;19;20018;-75
2023/03/08 05:22:01;;;;;;;15.18;6.82;;;3.90;1.00;;;;;;7358676;19;20022;-75
2023/03/08 05:24:33;;;;;;;15.30;8.27;;;3.90;1.00;;;;;;7358730;19;20030;-77
2023/03/08 05:27:03;;;;;;;16.85;8.20;;;3.90;1.00;;;;;;7359358;19;20010;-75
2023/03/08 05:29:33;;;;;;;13.02;7.35;;;4.00;1.00;;;;;;7384101;19;20018;-76
2023/03/08 05:32:03;;;;;;;14.85;8.05;;;3.90;1.00;;;;;;7390851;19;20029;-75
2023/03/08 05:34:34;;;;;;;15.35;7.57;;;3.90;1.00;;;;;;7386382;19;20014;-75
2023/03/08 05:37:04;;;;;;;16.33;7.90;;;3.90;1.00;;;;;;7387409;19;20030;-76
2023/03/08 05:39:36;;;;;;;17.45;8.88;;;3.90;1.00;;;;;;7382168;19;20018;-75
2023/03/08 05:42:07;;;;;;;16.73;7.60;;;4.00;1.00;;;;;;7388966;19;20026;-76
2023/03/08 05:44:37;;;;;;;15.85;8.27;;;4.00;1.00;;;;;;7387048;19;20015;-75
2023/03/08 05:47:07;;;;;;;13.65;7.10;;;4.00;1.00;;;;;;7385627;19;20439;-76
2023/03/08 05:49:37;;;;;;;14.18;7.75;;;4.00;1.00;;;;;;7348028;19;20011;-75
2023/03/08 05:52:07;;;;;;;14.40;7.95;;;4.00;1.00;;;;;;7361326;19;20466;-75
2023/03/08 05:54:40;;;;;;;14.35;7.78;;;4.10;1.00;;;;;;7358413;19;20010;-76
2023/03/08 05:57:10;;;;;;;16.33;8.27;;;4.10;1.00;;;;;;7380402;19;20018;-75
2023/03/08 05:59:39;;;;;;;16.92;8.40;;;4.10;1.00;;;;;;7354460;19;20423;-75
2023/03/08 06:02:09;;;;;;;16.02;8.60;;;4.10;1.00;;;;;;7357841;19;20018;-75
2023/03/08 06:04:39;;;;;;;15.65;8.57;;;4.00;1.00;;;;;;7364791;19;20481;-76
2023/03/08 06:07:09;;;;;;;17.08;8.68;;;4.10;1.00;;;;;;7366303;19;20090;-75
2023/03/08 06:09:41;;;;;;;16.33;8.93;;;4.10;1.00;;;;;;7362632;19;20018;-75
2023/03/08 06:12:11;;;;;;;12.57;7.57;;;4.10;1.00;;;;;;7380502;19;20540;-75
2023/03/08 06:14:41;;;;;;;15.25;7.93;;;4.10;1.00;;;;;;7390413;19;20285;-76
2023/03/08 06:17:11;;;;;;;14.80;8.10;;;4.20;1.00;;;;;;7366154;19;20022;-76
2023/03/08 06:19:40;;;;;;;12.73;8.18;;;4.20;1.00;;;;;;7360695;19;20015;-76
2023/03/08 06:22:10;;;;;;;13.95;8.65;;;4.20;1.00;;;;;;7379116;19;20006;-75
2023/03/08 06:24:42;;;;;;;18.23;8.98;;;4.20;1.00;;;;;;7398031;19;21160;-75
2023/03/08 06:27:12;;;;;;;17.17;8.02;;;4.20;1.00;;;;;;7414277;19;20021;-68
2023/03/08 06:29:42;;;;;;;18.63;8.45;;;4.30;1.00;;;;;;7415740;19;20010;-74
2023/03/08 06:32:12;;;;;;;15.30;8.90;;;4.30;1.00;;;;;;7365413;19;20014;-76
2023/03/08 06:34:42;;;;;;;16.67;8.55;;;4.30;1.00;;;;;;7366428;19;20018;-76
2023/03/08 06:37:11;;;;;;;17.85;8.63;;;4.40;1.00;;;;;;7364078;19;20023;-74
2023/03/08 06:39:44;;;;;;;16.95;9.13;;;4.40;1.00;;;;;;7361790;19;20014;-75
2023/03/08 06:42:14;;;;;;;20.60;9.10;;;4.50;1.00;;;;;;7369141;19;20609;-74
2023/03/08 06:44:43;;;;;;;19.52;9.25;;;4.50;1.00;;;;;;7384580;19;20015;-74
2023/03/08 06:47:13;;;;;;;15.77;8.85;;;4.60;1.00;;;;;;7364333;19;20015;-75
2023/03/08 06:49:43;;;;;;;17.00;8.77;;;4.60;1.00;;;;;;7362549;19;20017;-75
2023/03/08 06:52:15;;;;;;;18.33;9.13;;;4.60;1.00;;;;;;7394691;19;20030;-74
2023/03/08 06:54:47;;;;;;;19.05;9.55;;;4.70;1.00;;;;;;7391128;19;20368;-75
2023/03/08 06:57:17;;;;;;;18.85;10.32;;;4.70;1.00;;;;;;7390136;19;20017;-76
2023/03/08 06:59:47;;;;;;;17.98;9.23;;;4.70;1.00;;;;;;7386723;19;20014;-74
2023/03/08 07:02:17;;;;;;;19.58;10.13;;;4.70;1.00;;;;;;7390277;19;20011;-75
2023/03/08 07:04:46;;;;;;;17.55;10.05;;;4.80;1.00;;;;;;7390886;19;20021;-75
2023/03/08 07:07:18;;;;;;;17.10;10.10;;;4.80;1.00;;;;;;7392998;19;20018;-74
2023/03/08 07:09:51;;;;;;;18.20;10.02;;;4.80;1.00;;;;;;7387332;19;20014;-74
2023/03/08 07:12:20;;;;;;;21.05;10.65;;;4.80;1.00;;;;;;7390406;19;20015;-75
2023/03/08 07:14:50;;;;;;;17.08;10.30;;;4.90;1.00;;;;;;7389284;19;20025;-74
2023/03/08 07:17:20;;;;;;;18.15;10.15;;;4.90;1.00;;;;;;7349511;19;20077;-75
2023/03/08 07:19:50;;;;;;;20.83;9.52;;;4.90;1.00;;;;;;7381522;19;20015;-75
2023/03/08 07:22:20;;;;;;;18.60;8.85;;;5.00;1.00;;;;;;7361409;19;20014;-74
2023/03/08 07:24:52;;;;;;;15.82;8.88;;;5.10;1.00;;;;;;7365016;19;20042;-76
2023/03/08 07:27:22;;;;;;;16.13;9.10;;;5.00;1.00;;;;;;7363130;19;20044;-76
2023/03/08 07:29:52;;;;;;;16.35;8.68;;;5.10;1.00;;;;;;7368013;19;20034;-76
2023/03/08 07:32:27;;;;;;;16.38;9.80;;;5.10;1.00;;;;;;7383162;19;20042;-74
2023/03/08 07:34:58;;;;;;;17.40;9.95;;;5.10;1.00;;;;;;7360130;19;20455;-74
2023/03/08 07:37:27;;;;;;;16.45;8.80;;;5.10;1.00;;;;;;7360636;19;20010;-75
2023/03/08 07:40:00;;;;;;;17.52;9.15;;;5.00;1.00;;;;;;7358888;19;20455;-75
2023/03/08 07:42:30;;;;;;;19.48;10.27;;;5.10;1.00;;;;;;7361524;19;20153;-75
2023/03/08 07:45:00;;;;;;;18.55;10.85;;;5.10;1.00;;;;;;7359540;19;20030;-76
2023/03/08 07:47:29;;;;;;;19.55;10.35;;;5.10;1.00;;;;;;7382062;19;20030;-75
2023/03/08 07:50:00;;;;;;;17.40;9.23;;;5.10;1.00;;;;;;7356583;19;20037;-75
2023/03/08 07:52:30;;;;;;;20.80;10.10;;;5.10;1.00;;;;;;7360649;19;20413;-75
2023/03/08 07:55:03;;;;;;;22.33;10.68;;;5.10;1.00;;;;;;7360677;19;20490;-75
2023/03/08 07:57:33;;;;;;;19.48;10.63;;;5.00;1.00;;;;;;7361495;19;20621;-76
2023/03/08 08:00:06;;;;;;;19.48;11.10;;;5.10;1.00;;;;;;7356110;19;20010;-75
2023/03/08 08:02:36;;;;;;;23.10;13.10;;;5.00;1.00;;;;;;7381552;19;20359;-75
2023/03/08 08:05:07;;;;;;;18.25;10.48;;;5.10;1.00;;;;;;7359495;19;20029;-77
2023/03/08 08:07:37;;;;;;;19.30;10.48;;;5.00;1.00;;;;;;7360412;19;20006;-74
2023/03/08 08:10:11;;;;;;;21.42;10.10;;;5.00;1.00;;;;;;7358399;19;20014;-75
2023/03/08 08:12:40;;;;;;;18.80;10.18;;;5.10;1.00;;;;;;7360545;19;20103;-75
2023/03/08 08:15:11;;;;;;;15.35;9.30;;;5.00;1.00;;;;;;7359715;19;20032;-76
2023/03/08 08:17:41;;;;;;;18.40;10.13;;;5.10;1.00;;;;;;7387198;19;20078;-74
2023/03/08 08:20:13;;;;;;;23.65;10.27;;;5.20;1.00;;;;;;7384724;19;20438;-75
2023/03/08 08:22:43;;;;;;;20.02;10.20;;;5.20;1.00;;;;;;7388713;19;20057;-75
2023/03/08 08:25:15;;;;;;;18.65;10.27;;;5.20;1.00;;;;;;7384810;19;20089;-75
2023/03/08 08:27:45;;;;;;;19.45;10.05;;;5.20;1.00;;;;;;7387777;19;20014;-75
2023/03/08 08:30:17;;;;;;;20.40;10.73;;;5.30;1.00;;;;;;7387618;19;20011;-74
2023/03/08 08:32:46;;;;;;;18.38;9.90;;;5.30;1.00;;;;;;7387777;19;20031;-74
2023/03/08 08:35:16;;;;;;;20.15;10.15;;;5.30;1.00;;;;;;7386546;19;20010;-75
2023/03/08 08:37:46;;;;;;;21.35;10.77;;;5.20;1.00;;;;;;7388455;19;20006;-74
2023/03/08 08:40:19;;;;;;;18.13;10.15;;;5.20;1.00;;;;;;7384571;19;20018;-76
2023/03/08 08:42:50;;;;;;;17.00;10.43;;;5.30;1.00;;;;;;7322398;19;20014;-74
2023/03/08 08:45:20;;;;;;;20.23;11.15;;;5.10;1.00;;;;;;7382641;19;20021;-75
2023/03/08 08:47:50;;;;;;;20.50;10.40;;;5.20;1.00;;;;;;7385700;19;20478;-76
2023/03/08 08:50:20;;;;;;;19.42;10.70;;;5.20;1.00;;;;;;7354829;19;20019;-75
2023/03/08 08:52:50;;;;;;;20.42;10.55;;;5.00;1.00;;;;;;7359325;19;20014;-74
2023/03/08 08:55:22;;;;;;;19.95;9.95;;;5.00;1.00;;;;;;7359596;19;20799;-76
2023/03/08 08:57:52;;;;;;;19.17;10.30;;;5.00;1.00;;;;;;7357992;19;20528;-76
2023/03/08 09:00:22;;;;;;;17.38;9.98;;;5.00;1.00;;;;;;7377536;19;20014;-76
2023/03/08 09:02:52;;;;;;;22.13;10.18;;;5.10;1.00;;;;;;7358735;19;20118;-75
2023/03/08 09:05:22;;;;;;;19.83;10.60;;;5.20;1.00;;;;;;7357211;19;20021;-76
2023/03/08 09:07:54;;;;;;;21.52;10.82;;;5.20;1.00;;;;;;7358820;19;20505;-76
2023/03/08 09:10:27;;;;;;;21.00;10.15;;;5.10;1.00;;;;;;7356070;19;20366;-75
2023/03/08 09:12:57;;;;;;;17.40;9.75;;;5.30;1.00;;;;;;7358081;19;20116;-74
2023/03/08 09:15:28;;;;;;;21.58;10.80;;;5.30;1.00;;;;;;7380149;19;20019;-75
2023/03/08 09:17:58;;;;;;;18.95;10.23;;;5.40;1.00;;;;;;7358467;19;20351;-73
2023/03/08 09:20:28;;;;;;;19.67;11.57;;;5.30;1.00;;;;;;7354427;19;20017;-75
2023/03/08 09:22:58;;;;;;;21.77;10.70;;;5.30;1.00;;;;;;7357703;19;20018;-75
2023/03/08 09:25:31;;;;;;;20.38;10.50;;;5.30;1.00;;;;;;7358544;19;20017;-76
2023/03/08 09:28:00;;;;;;;18.77;10.43;;;5.20;1.00;;;;;;7356673;19;20192;-76
2023/03/08 09:30:31;;;;;;;18.20;10.32;;;5.30;1.00;;;;;;7379723;19;20028;-74
2023/03/08 09:33:02;;;;;;;17.75;10.55;;;5.30;1.00;;;;;;7357600;19;20676;-75
2023/03/08 09:35:32;;;;;;;19.00;10.75;;;5.40;1.00;;;;;;7357421;19;20026;-78
2023/03/08 09:38:03;;;;;;;19.25;10.20;;;5.40;1.00;;;;;;7360215;19;20489;-74
2023/03/08 09:40:41;;;;;;;20.33;10.35;;;5.50;1.00;;;;;;7363341;19;20018;-77
2023/03/08 09:43:22;;;;;;;19.33;9.77;;;5.50;1.00;;;;;;7365261;19;20007;-75
2023/03/08 09:45:55;;;;;;;21.40;10.85;;;5.40;1.00;;;;;;7396557;19;20522;-76
2023/03/08 09:48:29;;;;;;;18.40;10.45;;;5.50;1.00;;;;;;7393167;19;20014;-75
2023/03/08 09:51:01;;;;;;;19.65;10.18;;;5.60;1.00;;;;;;7391258;19;20435;-75
2023/03/08 09:53:36;;;;;;;17.65;10.38;;;5.60;1.00;;;;;;7393517;19;20010;-74
2023/03/08 09:56:18;;;;;;;18.50;10.02;;;5.70;1.00;;;;;;7393116;19;20019;-76
2023/03/08 09:58:51;;;;;;;20.40;10.45;;;5.70;1.00;;;;;;7390920;19;20074;-75
2023/03/08 10:01:29;;;;;;;20.60;10.63;;;5.90;1.00;;;;;;7395008;19;20018;-76
2023/03/08 10:04:21;;;;;;;18.95;9.95;;;5.90;1.00;;;;;;7390698;19;20412;-73
2023/03/08 10:07:01;;;;;;;25.38;14.05;;;6.10;1.00;;;;;;7396218;19;20014;-75
2023/03/08 10:09:35;;;;;;;15.40;9.40;;;6.40;1.00;;;;;;7391555;19;20487;-74
2023/03/08 10:12:16;;;;;;;15.30;9.68;;;6.50;1.00;;;;;;7394200;19;20038;-75
2023/03/08 10:14:50;;;;;;;17.50;9.45;;;6.70;1.00;;;;;;7393264;19;20022;-74
2023/03/08 10:17:23;;;;;;;16.40;9.27;;;6.90;1.00;;;;;;7393207;19;20483;-75
2023/03/08 10:20:00;;;;;;;16.27;10.00;;;6.90;1.00;;;;;;7389932;19;20021;-74
2023/03/08 10:22:35;;;;;;;15.80;9.38;;;7.00;1.00;;;;;;7392724;19;20015;-75
2023/03/08 10:25:21;;;;;;;23.25;10.32;;;7.00;1.00;;;;;;7393045;19;20014;-75
2023/03/08 10:27:56;;;;;;;17.70;9.68;;;6.90;1.00;;;;;;7391900;19;20023;-73
2023/03/08 10:30:26;;;;;;;;;;;7.00;1.00;;;;;;7391037;19;20074;-74
2023/03/08 10:33:00;;;;;;;18.73;9.27;;;7.00;1.00;;;;;;7389596;19;19915;-75
2023/03/08 10:35:35;;;;;;;15.48;9.25;;;7.10;1.00;;;;;;7390910;19;20010;-75
2023/03/08 10:38:06;;;;;;;14.50;8.75;;;7.10;1.00;;;;;;7392160;19;21891;-74
2023/03/08 10:40:35;;;;;;;17.63;8.73;;;7.10;1.00;;;;;;7388751;19;20018;-75
2023/03/08 10:43:08;;;;;;;17.42;8.48;;;7.20;1.00;;;;;;7390724;19;20085;-74
2023/03/08 10:45:38;;;;;;;13.60;7.85;;;7.30;1.00;;;;;;7392000;19;20096;-74
2023/03/08 10:48:08;;;;;;;11.52;6.60;;;7.40;1.00;;;;;;7391410;19;20106;-74
2023/03/08 10:50:39;;;;;;;12.80;5.47;;;7.60;1.00;;;;;;7350814;19;20056;-75
2023/03/08 10:53:11;;;;;;;10.30;5.63;;;7.80;1.00;;;;;;7388253;19;20412;-74
2023/03/08 10:55:45;;;;;;;9.82;5.63;;;7.90;1.00;;;;;;7363753;19;20089;-75
2023/03/08 10:58:37;;;;;;;8.35;4.40;;;8.10;1.00;;;;;;7363232;19;20081;-74
2023/03/08 11:01:23;;;;;;;8.20;4.38;;;8.20;1.00;;;;;;7363791;19;20045;-75
2023/03/08 11:04:01;;;;;;;9.48;4.65;;;8.20;1.00;;;;;;7362230;19;20021;-74
2023/03/08 11:06:31;;;;;;;7.40;4.00;;;8.30;1.00;;;;;;7387076;19;20118;-75
2023/03/08 11:09:03;;;;;;;5.85;3.95;;;8.40;1.00;;;;;;7362139;19;20025;-75
2023/03/08 11:11:43;;;;;;;6.47;3.97;;;8.50;1.00;;;;;;7362409;19;20031;-74
2023/03/08 11:14:16;;;;;;;5.88;3.42;;;8.60;1.00;;;;;;7362402;19;20021;-75
2023/03/08 11:17:11;;;;;;;5.80;2.95;;;8.80;1.00;;;;;;7362690;19;20043;-75
2023/03/08 11:19:58;;;;;;;4.75;2.40;;;9.00;1.00;;;;;;7360160;19;20040;-74
2023/03/08 11:22:46;;;;;;;3.83;1.90;;;9.30;1.00;;;;;;7361451;19;20014;-75
2023/03/08 11:25:30;;;;;;;3.97;1.77;;;9.50;1.00;;;;;;7361305;19;20029;-73
2023/03/08 11:28:13;;;;;;;3.70;1.57;;;9.70;1.00;;;;;;7361386;19;20011;-76
2023/03/08 11:30:57;;;;;;;2.00;1.25;;;9.80;1.00;;;;;;7384024;19;20291;-75
2023/03/08 11:33:45;;;;;;;2.63;1.20;;;9.80;1.00;;;;;;7358893;19;20031;-75
2023/03/08 11:36:21;;;;;;;1.40;1.00;;;9.90;1.00;;;;;;7361369;19;20137;-76
2023/03/08 11:38:59;;;;;;;1.77;1.20;;;10.10;1.00;;;;;;7361329;19;20025;-74
2023/03/08 11:41:39;;;;;;;1.75;1.13;;;10.20;1.00;;;;;;7363394;19;20683;-75
2023/03/08 11:44:26;;;;;;;1.38;0.80;;;10.20;1.00;;;;;;7362025;19;20321;-75
2023/03/08 11:47:19;;;;;;;3.38;1.13;;;10.30;1.00;;;;;;7361938;19;20015;-74
2023/03/08 11:50:04;;;;;;;1.52;0.90;;;10.40;1.00;;;;;;7361135;19;20434;-75
2023/03/08 11:52:41;;;;;;;2.20;0.90;;;10.40;1.00;;;;;;7390928;19;20018;-74
2023/03/08 11:55:37;;;;;;;1.20;0.75;;;10.40;1.00;;;;;;7388095;19;20010;-75
2023/03/08 11:58:13;;;;;;;1.40;0.90;;;10.50;1.00;;;;;;7388750;19;20081;-75
2023/03/08 12:00:46;;;;;;;2.17;0.85;;;10.50;1.00;;;;;;7384307;19;20081;-74
2023/03/08 12:03:21;;;;;;;1.90;0.70;;;10.50;1.00;;;;;;7386931;19;20114;-74
2023/03/08 12:05:56;;;;;;;2.63;1.02;;;10.50;1.00;;;;;;7389380;19;20027;-77
2023/03/08 12:08:33;;;;;;;0.60;0.50;;;10.70;1.00;;;;;;7386824;19;20021;-76
2023/03/08 12:11:07;;;;;;;2.17;0.80;;;10.70;1.00;;;;;;7388560;19;20808;-75
2023/03/08 12:13:39;;;;;;;2.15;0.93;;;10.80;1.00;;;;;;7386675;19;20022;-75
2023/03/08 12:16:16;;;;;;;3.53;0.98;;;10.90;1.00;;;;;;7388606;19;20014;-75
2023/03/08 12:18:56;;;;;;;2.00;0.90;;;11.10;1.00;;;;;;7347942;19;20034;-76
2023/03/08 12:21:39;;;;;;;1.48;0.85;;;11.30;1.00;;;;;;7383207;19;20017;-75
2023/03/08 12:24:26;;;;;;;2.55;0.82;;;11.30;1.00;;;;;;7359658;19;20026;-76
2023/03/08 12:27:01;;;;;;;6.05;0.77;;;11.40;1.00;;;;;;7359931;19;20014;-75
2023/03/08 12:29:36;;;;;;;4.32;0.80;;;11.60;1.00;;;;;;7359079;19;20673;-77
2023/03/08 12:32:07;;;;;;;1.10;0.75;;;11.50;1.00;;;;;;7359337;19;20015;-73
2023/03/08 12:34:45;;;;;;;1.35;0.93;;;11.60;1.00;;;;;;7359213;19;20501;-75
2023/03/08 12:37:26;;;;;;;1.20;0.90;;;11.70;1.00;;;;;;7359962;19;20014;-75
2023/03/08 12:39:59;;;;;;;3.63;0.85;;;11.80;1.00;;;;;;7357866;19;20010;-75
2023/03/08 12:42:38;;;;;;;1.88;0.68;;;11.80;1.00;;;;;;7381717;19;20482;-76
2023/03/08 12:45:29;;;;;;;5.72;0.82;;;11.90;1.00;;;;;;7358299;19;20066;-76
2023/03/08 12:48:10;;;;;;;1.08;0.70;;;11.70;1.00;;;;;;7357813;19;20031;-76
2023/03/08 12:50:45;;;;;;;3.22;1.00;;;11.80;1.00;;;;;;7355880;19;20011;-77
2023/03/08 12:53:24;;;;;;;1.45;0.80;;;11.90;1.00;;;;;;7359469;19;20383;-77
2023/03/08 12:56:07;;;;;;;1.63;0.85;;;12.00;1.00;;;;;;7355132;19;20026;-75
2023/03/08 12:58:40;;;;;;;1.88;0.80;;;12.10;1.00;;;;;;7354968;19;20530;-76
2023/03/08 13:01:32;;;;;;;3.35;0.90;;;12.20;1.00;;;;;;7359352;19;20018;-76
2023/03/08 13:04:03;;;;;;;3.15;0.90;;;12.10;1.00;;;;;;7356118;19;20089;-76
2023/03/08 13:07:00;;;;;;;2.50;0.70;;;12.30;1.00;;;;;;7379640;19;20018;-75
2023/03/08 13:09:34;;;;;;;2.28;0.68;;;12.40;1.00;;;;;;7356008;19;20018;-75
2023/03/08 13:12:14;;;;;;;;;;;12.50;1.00;;;;;;7364864;19;20093;-75
2023/03/08 13:14:46;;;;;;;4.07;0.85;;;12.50;1.00;;;;;;7362929;19;20002;-76
2023/03/08 13:17:36;;;;;;;1.08;0.60;;;12.70;1.00;;;;;;7363412;19;20379;-77
2023/03/08 13:20:15;;;;;;;2.28;0.63;;;12.60;1.00;;;;;;7367144;19;20010;-76
2023/03/08 13:22:58;;;;;;;1.50;0.85;;;12.80;1.00;;;;;;7390498;19;20029;-76
2023/03/08 13:25:57;;;;;;;2.78;0.55;;;13.00;1.00;;;;;;7392640;19;20014;-76
2023/03/08 13:28:28;;;;;;;1.30;0.55;;;13.00;1.00;;;;;;7393322;19;20362;-75